Home   Weather   Germany   Oberhausen   Past weeks
Flag for Germany

Past Weather in Oberhausen, North Rhine-Westphalia, Germany — Yesterday and Last 2 Weeks

Currently: 88 °F. Sunny. (Weather station: Duesseldorf, Germany). See more current weather

Past Weather in Oberhausen — Graph

°F

Oberhausen Temperature Yesterday

Maximum temperature yesterday: 93 °F (at 1:50 pm)
Minimum temperature yesterday: 72 °F (at 12:20 am)
Average temperature yesterday: 82 °F

High & Low Weather Summary for the Past Weeks

 TemperatureHumidityPressure
High93 °F (Jun 17, 1:50 pm)100% (Jun 4, 3:50 am)30.36 "Hg (Jun 4, 3:50 am)
Low46 °F (Jun 13, 5:20 am)28% (Jun 18, 5:50 pm)29.83 "Hg (Jun 16, 9:20 pm)
Average69 °F68%30.11 "Hg
* Reported Jun 3 7:20 pm — Jun 18 7:50 pm, Oberhausen. Weather by CustomWeather, © 2021

Note: Actual official high and low records may vary slightly from our data, if they occured in-between our weather recording intervals... More about our weather records

Oberhausen Weather History for the Previous 24 Hours

Scroll right to see more
 ConditionsComfort  
Time TempWeatherWind HumidityBarometerVisibility
7:50 pm
Fri, Jun 18
88 °FSunny.17 mph38%29.83 "Hg10 mi
7:20 pm90 °FSunny.21 mph33%29.83 "Hg10 mi
6:50 pm91 °FPassing clouds.16 mph32%29.83 "HgN/A
6:20 pm91 °FPassing clouds.17 mph30%29.83 "HgN/A
5:50 pm93 °FPassing clouds.17 mph28%29.83 "HgN/A
5:20 pm91 °FPassing clouds.14 mph30%29.83 "HgN/A
4:50 pm91 °FSunny.14 mph32%29.83 "Hg10 mi
4:20 pm93 °FPassing clouds.10 mph32%29.86 "HgN/A
3:50 pm91 °FPassing clouds.9 mph34%29.86 "HgN/A
3:20 pm91 °FPassing clouds.7 mph30%29.86 "HgN/A
2:50 pm91 °FPassing clouds.9 mph30%29.86 "HgN/A
1:50 pm90 °FSunny.7 mph33%29.89 "Hg10 mi
1:20 pm88 °FPassing clouds.10 mph43%29.89 "HgN/A
12:50 pm86 °FPassing clouds.8 mph49%29.89 "HgN/A
12:20 pm86 °FPassing clouds.7 mph49%29.89 "HgN/A
11:50 am86 °FSunny.3 mph49%29.89 "Hg10 mi
11:20 am84 °FSunny.3 mph48%29.92 "Hg10 mi
10:50 am81 °FSunny.5 mph62%29.92 "Hg10 mi
10:20 am81 °FSunny.1 mph62%29.92 "Hg10 mi
9:50 am81 °FPassing clouds.5 mph66%29.92 "HgN/A
9:20 am81 °FSunny.2 mph62%29.92 "Hg10 mi
8:50 am79 °FSunny.2 mph65%29.92 "Hg10 mi
8:20 am77 °FPassing clouds.7 mph69%29.92 "HgN/A
7:50 am77 °FSunny.2 mph69%29.92 "Hg10 mi
7:20 am75 °FPassing clouds.6 mph74%29.89 "HgN/A
6:50 am73 °FSunny.3 mph78%29.89 "Hg10 mi
6:20 am72 °FSunny.2 mph78%29.89 "Hg10 mi
5:50 am72 °FSunny.3 mph78%29.89 "Hg10 mi
5:20 am72 °FSunny.3 mph73%29.89 "Hg10 mi
4:50 am72 °FPassing clouds.5 mph78%29.89 "HgN/A
4:20 am72 °FClear.7 mph73%29.89 "Hg10 mi
3:50 am72 °FClear.8 mph73%29.89 "Hg10 mi
3:20 am73 °FClear.9 mph69%29.89 "Hg10 mi
2:50 am73 °FClear.7 mph74%29.92 "Hg10 mi
2:20 am73 °FClear.6 mph74%29.92 "Hg10 mi
1:50 am75 °FPassing clouds.6 mph69%29.92 "HgN/A
1:20 am75 °FClear.10 mph69%29.92 "Hg10 mi
12:50 am77 °FClear.9 mph65%29.92 "Hg10 mi
12:20 am75 °FClear.6 mph69%29.92 "Hg10 mi
11:50 pm
Thu, Jun 17
77 °FClear.6 mph65%29.92 "Hg10 mi
11:20 pm79 °FClear.7 mph61%29.89 "Hg10 mi
10:50 pm79 °FClear.7 mph61%29.89 "Hg10 mi
10:20 pm81 °FClear.3 mph54%29.89 "Hg10 mi
9:50 pm82 °FPassing clouds.5 mph51%29.89 "HgN/A
9:20 pm82 °FPassing clouds.5 mph51%29.86 "HgN/A
Weather by CustomWeather, © 2021

See weather overview